Anvle, Pennsylvania
Current Conditions -  °F | °C
As of 2:58 AM on Friday 19 Dec 2014 (Local Time) from KMUI Reporting Station
Overcast Overcast  
Wind Chill: 28°   Ceiling: 2800
Heat Index: 34°   Visibility: 10mi
Dew Point: 24°   Wind: 7mph
Humidity: 67%   Direction: 280°W
Pressure: 30.05"   Gusts: NA
Location:  40.43°N, 76.56°W
Report Text: KMUI 190758Z AUTO 28006KT 10SM OVC028 01/M05 A3005 RMK AO2 SLP184 T00101046
Loading
Personal Weather Stations






























Interactive Weather Map New forecast layout! Learn more

10-Day Weather Forecast

Advertisements
Track Severe Weather on mobile